Latest Coastal Weather Observations for St Helens

IDT60701

Issued at 12:32 am EST Saturday 24 April 2021 (issued every 10 minutes, with the page automatically refreshed every 10 minutes)

About coastal observations | Map of coastal stations | Coastal observations for TAS | Marine services | Other Formats
Station Details ID: 092120 Name: ST HELENS AERODROME Lat: -41.34 Lon: 148.28 Height: 48.0 m
Data from the previous 72 hours. | See also: Recent months at St Helens
Date/Time
EST
Wind Sea
Height
m
Swell Vis
km
Cloud Weather Temp
°C
Press
MSL
hPa
Rain since
9am
mm
Dir  Spd
kts
Gust
kts
Height
m
Period
s
Dir
24/12:30am W 4 8 - - - - 10 Clear - 9.4 1014.8 0.0
24/12:00am W 3 5 - - - - 10 - - 8.8 1014.9 0.0
 
Date/Time
EST
Wind Sea
Height
m
Swell Vis
km
Cloud Weather Temp
°C
Press
MSL
hPa
Rain since
9am
mm
Dir  Spd
kts
Gust
kts
Height
m
Period
s
Dir
23/11:30pm WNW 4 6 - - - - 10 - - 9.2 1014.8 0.0
23/11:00pm W 2 5 - - - - - - - 9.2 1015.0 0.0
23/10:30pm WSW 4 6 - - - - 10 - - 9.4 1015.0 0.0
23/10:00pm SW 4 7 - - - - 10 - - 9.5 1014.9 0.0
23/09:30pm WSW 3 5 - - - - 10 - - 10.0 1014.6 0.0
23/09:00pm WNW 3 5 - - - - - - - 10.4 1014.3 0.0
23/08:30pm W 4 6 - - - - - - - 10.5 1014.0 0.0
23/08:00pm WNW 6 9 - - - - - - - 11.8 1013.7 0.0
23/07:30pm NW 6 8 - - - - - - - 12.0 1013.6 0.0
23/07:00pm W 4 8 - - - - - - - 11.9 1012.9 0.0
23/06:30pm W 5 10 - - - - - - - 12.1 1012.2 0.0
23/06:00pm WSW 5 8 - - - - - - - 12.9 1011.7 0.0
23/05:30pm WSW 5 9 - - - - - - - 13.4 1011.3 0.0
23/05:00pm WSW 5 9 - - - - - - - 14.5 1010.9 0.0
23/04:30pm W 6 11 - - - - - Partly cloudy - 15.4 1010.5 0.0
23/04:00pm W 6 11 - - - - - Partly cloudy - 15.1 1010.3 0.0
23/03:30pm WSW 6 13 - - - - - - - 16.4 1010.0 0.0
23/03:00pm WSW 3 7 - - - - - Mostly clear - 16.8 1009.9 0.0
23/02:30pm WNW 5 8 - - - - - Partly cloudy - 16.1 1009.5 0.0
23/02:00pm W 7 12 - - - - - Partly cloudy - 16.3 1009.4 0.0
23/01:30pm WNW 7 13 - - - - - Partly cloudy - 16.5 1009.3 0.0
23/01:00pm W 6 13 - - - - - Partly cloudy - 16.2 1009.5 0.0
23/12:30pm NW 8 14 - - - - - Partly cloudy - 16.0 1009.7 0.0
23/12:00pm WNW 6 11 - - - - - Cloudy - 16.1 1009.9 0.0
23/11:30am W 6 11 - - - - - - - 15.1 1010.3 0.0
23/11:00am W 7 11 - - - - - - - 14.1 1010.1 0.0
23/10:30am W 6 13 - - - - - - - 13.9 1009.9 0.0
23/10:00am WSW 7 11 - - - - - - - 13.2 1010.1 0.0
23/09:30am W 6 9 - - - - - - - 12.5 1010.0 0.0
23/09:00am WNW 4 8 - - - - 15 Partly cloudy Haze 11.8 1009.7 0.0
23/08:30am WNW 4 7 - - - - - - - 10.9 1009.5 0.0
23/08:00am WNW 3 6 - - - - - - - 9.8 1009.0 0.0
23/07:30am WSW 3 6 - - - - 10 - - 8.9 1008.3 0.0
23/07:00am W 5 8 - - - - 10 - - 8.8 1007.8 0.0
23/06:30am WSW 4 8 - - - - 10 - - 8.6 1007.4 0.0
23/06:00am NW 2 4 - - - - 10 - - 8.2 1007.1 0.0
23/05:30am NNW 4 7 - - - - 10 - - 8.7 1006.9 0.0
23/05:00am WSW 4 8 - - - - - - - 9.2 1006.3 0.0
23/04:30am NW 5 8 - - - - - - - 10.3 1006.0 0.0
23/04:00am NNW 7 11 - - - - - - - 10.7 1006.0 0.0
23/03:30am N 7 11 - - - - 10 - - 10.6 1005.8 0.0
23/03:00am NNE 3 6 - - - - 10 - - 8.2 1005.8 0.0
23/02:30am NW 5 8 - - - - 10 - - 9.2 1005.7 0.0
23/02:00am NW 6 8 - - - - 10 - - 9.4 1005.8 0.0
23/01:30am NW 5 8 - - - - 10 - - 9.4 1005.6 0.0
23/01:00am WNW 5 9 - - - - 10 - - 9.2 1005.7 0.0
23/12:30am NW 6 8 - - - - 10 - - 8.8 1005.7 0.0
23/12:00am NNW 4 7 - - - - - - - 9.7 1005.6 0.0
 
Date/Time
EST
Wind Sea
Height
m
Swell Vis
km
Cloud Weather Temp
°C
Press
MSL
hPa
Rain since
9am
mm
Dir  Spd
kts
Gust
kts
Height
m
Period
s
Dir
22/11:30pm NNW 5 8 - - - - 10 - - 10.1 1005.4 0.0
22/11:00pm NNW 4 5 - - - - 10 - - 10.2 1005.7 0.0
22/10:30pm N 1 5 - - - - - - - 9.6 1005.6 0.0
22/10:00pm NNW 5 6 - - - - - - - 10.6 1005.4 0.0
22/09:30pm WSW 5 9 - - - - - - - 11.2 1005.3 0.0
22/09:00pm WNW 6 9 - - - - - - - 11.5 1004.9 0.0
22/08:30pm NW 5 8 - - - - - - - 11.9 1004.5 0.0
22/08:00pm NW 5 8 - - - - - - - 12.4 1004.2 0.0
22/07:30pm NW 8 12 - - - - - - - 12.8 1003.7 0.0
22/07:00pm W 6 11 - - - - - - - 13.1 1003.5 0.0
22/06:30pm WNW 5 9 - - - - - Partly cloudy - 13.2 1003.3 0.0
22/06:00pm NW 7 9 - - - - - Partly cloudy - 13.6 1002.5 0.0
22/05:30pm NW 8 14 - - - - - Partly cloudy - 14.0 1002.3 0.0
22/05:00pm WNW 8 16 - - - - - Partly cloudy - 14.6 1001.9 0.0
22/04:30pm WNW 10 17 - - - - - Cloudy - 15.3 1001.6 0.0
22/04:00pm WNW 7 14 - - - - - Partly cloudy - 15.4 1001.3 0.0
22/03:30pm W 7 15 - - - - - Partly cloudy - 16.6 1001.0 0.0
22/03:00pm WNW 7 11 - - - - - Cloudy - 16.2 1001.0 0.0
22/02:30pm WNW 9 17 - - - - - Partly cloudy - 16.2 1000.9 0.0
22/02:00pm WNW 10 19 - - - - - Partly cloudy - 15.7 1000.9 0.0
22/01:30pm W 9 15 - - - - - - - 16.6 1001.0 0.0
22/01:00pm SW 7 16 - - - - - Partly cloudy - 16.0 1001.0 0.0
22/12:30pm WSW 10 21 - - - - - - - 16.1 1001.1 0.0
22/12:00pm W 10 20 - - - - - - - 15.7 1001.5 0.0
22/11:30am WSW 9 19 - - - - - - - 15.8 1001.8 0.0
22/11:00am W 8 15 - - - - - - - 15.9 1002.0 0.0
22/10:30am W 8 16 - - - - - - - 15.3 1002.0 0.0
22/10:00am W 10 21 - - - - - - - 15.0 1002.1 0.0
22/09:30am W 7 15 - - - - - Partly cloudy - 14.8 1002.4 0.0
22/09:00am NW 7 13 - - - - - - - 14.8 1002.6 0.0
22/08:30am WNW 8 16 - - - - - - - 14.1 1002.7 0.0
22/08:00am WNW 9 15 - - - - - - - 13.8 1002.8 0.0
22/07:30am NNW 6 11 - - - - - - - 12.9 1002.7 0.0
22/07:00am NNW 8 15 - - - - - Partly cloudy - 12.3 1002.3 0.0
22/06:30am NNW 8 11 - - - - - Partly cloudy - 12.4 1002.8 0.0
22/06:00am NW 10 17 - - - - - Partly cloudy - 12.7 1002.8 0.0
22/05:30am NW 8 14 - - - - - Cloudy - 13.0 1003.4 0.0
22/05:00am NW 8 13 - - - - - Cloudy - 13.1 1003.6 0.0
22/04:30am NW 9 17 - - - - - Partly cloudy - 13.1 1003.4 0.0
22/04:00am NW 9 19 - - - - - Cloudy - 13.0 1003.5 0.0
22/03:30am NNW 7 11 - - - - - Cloudy - 13.0 1004.1 0.0
22/03:00am NW 8 13 - - - - - Mostly cloudy - 12.8 1004.7 0.0
22/02:30am NNW 9 17 - - - - - Cloudy - 12.6 1004.8 0.0
22/02:00am NW 6 11 - - - - - Cloudy - 12.4 1005.2 0.0
22/01:30am NW 8 12 - - - - - Partly cloudy - 11.9 1005.6 0.0
22/01:00am NW 6 9 - - - - - Partly cloudy - 12.0 1006.1 0.0
22/12:30am NW 9 14 - - - - - Partly cloudy - 11.6 1006.4 0.0
22/12:00am N 8 11 - - - - - Cloudy - 11.2 1006.8 0.0
 
Date/Time
EST
Wind Sea
Height
m
Swell Vis
km
Cloud Weather Temp
°C
Press
MSL
hPa
Rain since
9am
mm
Dir  Spd
kts
Gust
kts
Height
m
Period
s
Dir
21/11:30pm N 9 12 - - - - - Cloudy - 11.1 1007.5 0.0
21/11:00pm NNE 8 11 - - - - - Cloudy - 11.0 1007.8 0.0
21/10:30pm N 7 11 - - - - - Partly cloudy - 10.6 1008.5 0.0
21/10:00pm N 9 15 - - - - - Partly cloudy - 10.8 1009.0 0.0
21/09:30pm N 9 13 - - - - - Partly cloudy - 10.3 1009.4 0.0
21/09:00pm N 6 10 - - - - - Mostly clear - 10.0 1009.7 0.0
21/08:30pm NW 7 10 - - - - - - - 10.0 1009.7 0.0
21/08:00pm NNW 6 9 - - - - - Partly cloudy - 10.1 1009.8 0.0
21/07:30pm NW 7 11 - - - - - - - 10.2 1010.1 0.0
21/07:00pm NNW 7 9 - - - - - - - 10.2 1010.5 0.0
21/06:30pm NNW 7 11 - - - - - - - 10.4 1010.3 0.0
21/06:00pm NNW 7 10 - - - - - Mostly clear - 10.8 1010.5 0.0
21/05:30pm NW 10 15 - - - - - Partly cloudy - 11.1 1010.5 0.0
21/05:00pm W 7 13 - - - - - Partly cloudy - 11.8 1010.3 0.0
21/04:30pm W 8 16 - - - - - Partly cloudy - 11.8 1010.4 0.0
21/04:00pm W 7 15 - - - - - Partly cloudy - 12.6 1010.5 0.0
21/03:30pm W 9 16 - - - - - Partly cloudy - 12.7 1010.6 0.0
21/03:00pm W 9 17 - - - - - - - 13.2 1010.5 0.0
21/02:30pm W 7 15 - - - - - - - 13.5 1010.7 0.0
21/02:00pm NW 8 15 - - - - - - - 13.4 1011.1 0.0
21/01:30pm W 8 16 - - - - - - - 13.1 1011.4 0.0
21/01:00pm WNW 8 15 - - - - - - - 13.3 1012.0 0.0
21/12:30pm NNW 9 14 - - - - - - - 13.3 1012.7 0.0
21/12:00pm NNW 8 13 - - - - - - - 13.4 1013.2 0.0
21/11:30am N 8 13 - - - - - - - 12.9 1013.7 0.0
21/11:00am N 8 12 - - - - - - - 12.3 1014.0 0.0
21/10:30am NNW 4 6 - - - - - Partly cloudy - 11.8 1014.6 0.0
21/10:00am NW 5 6 - - - - - Partly cloudy - 10.5 1014.9 0.0
21/09:30am NW 5 7 - - - - - - - 9.3 1015.1 0.0
21/09:00am NW 5 7 - - - - 30 Mostly clear Fine 7.6 1015.0 11.8
21/08:30am NW 6 8 - - - - - - - 6.0 1015.0 11.8
21/08:00am NW 6 8 - - - - - - - 4.8 1015.1 11.8
21/07:30am NW 7 8 - - - - - - - 4.1 1015.0 11.8
21/07:00am NW 6 8 - - - - - - - 3.8 1015.0 11.8
21/06:30am NW 5 7 - - - - 10 - - 4.3 1014.9 11.8
21/06:00am NW 5 6 - - - - 10 - - 5.1 1014.8 11.8
21/05:30am W 4 10 - - - - 10 - - 6.3 1014.5 11.8
21/05:00am CALM 0 3 - - - - - - - 5.9 1014.2 11.8
21/04:30am WSW 3 6 - - - - - - - 6.4 1014.0 11.8
21/04:00am SSW 6 9 - - - - 10 - - 6.1 1013.7 11.8
21/03:30am SSW 6 11 - - - - 10 - - 6.2 1013.6 11.8
21/03:00am SSW 5 8 - - - - - - - 5.8 1013.5 11.8
21/02:30am SSW 5 8 - - - - 10 - - 6.1 1013.6 11.8
21/02:00am SSW 4 7 - - - - 10 - - 6.0 1013.6 11.8
21/01:30am SSW 4 6 - - - - - - - 6.1 1013.3 11.8
21/01:00am WSW 3 6 - - - - - - - 6.8 1013.2 11.8

Other formats

Comma delimited format used in spreadsheet applications
http://www.bom.gov.au/fwo/IDT60701/IDT60701.95981.axf

JavaScript Object Notation format (JSON) in row-major order
http://www.bom.gov.au/fwo/IDT60701/IDT60701.95981.json

Data quality

Most of these data are generated automatically and are frequently updated. Quality checks on data are not normally performed. It is possible for incorrect values to appear. Refer to information at About Latest Weather Observations and please check the disclaimer before using these data.